createdAt,value
2022-09-11T00:01:37.933Z,80.79
2022-09-11T00:04:06.394Z,81.09
2022-09-11T00:06:34.280Z,80.88
2022-09-11T00:09:05.678Z,79.39
2022-09-11T00:11:40.791Z,79.07
2022-09-11T00:14:13.861Z,78.37
2022-09-11T00:16:45.329Z,79.08
2022-09-11T00:19:16.271Z,79.78
2022-09-11T00:21:43.753Z,80.02
2022-09-11T00:24:12.589Z,79.18
2022-09-11T00:26:42.570Z,79.04
2022-09-11T00:29:12.058Z,80.04
2022-09-11T00:31:39.916Z,80.72
2022-09-11T00:34:08.046Z,82.24
2022-09-11T00:36:39.224Z,82.70
2022-09-11T00:39:08.033Z,83.06
2022-09-11T00:41:39.188Z,83.62
2022-09-11T00:44:08.792Z,84.27
2022-09-11T00:46:42.207Z,85.49
2022-09-11T00:49:24.389Z,86.41
2022-09-11T00:52:01.002Z,86.40
2022-09-11T00:54:36.000Z,85.96
2022-09-11T00:57:08.106Z,86.47
2022-09-11T00:59:39.078Z,86.72
2022-09-11T01:02:13.796Z,87.32
2022-09-11T01:04:41.483Z,87.18
2022-09-11T01:07:11.627Z,87.10
2022-09-11T01:09:39.769Z,86.47
2022-09-11T01:12:19.796Z,86.85
2022-09-11T01:15:04.614Z,86.06
2022-09-11T01:17:55.302Z,86.71
2022-09-11T01:20:52.654Z,86.24
2022-09-11T01:23:33.688Z,86.78
2022-09-11T01:26:20.421Z,85.68
2022-09-11T01:29:05.693Z,86.55
2022-09-11T01:31:49.487Z,85.82
2022-09-11T01:34:23.221Z,85.52
2022-09-11T01:37:01.357Z,84.75
2022-09-11T01:39:40.494Z,84.33
2022-09-11T01:42:14.894Z,85.81
2022-09-11T01:45:00.396Z,85.31
2022-09-11T01:47:29.373Z,84.65
2022-09-11T01:50:03.547Z,84.73
2022-09-11T01:52:42.496Z,84.59
2022-09-11T01:55:16.837Z,84.87
2022-09-11T01:57:55.518Z,85.33
2022-09-11T02:00:23.735Z,86.45
2022-09-11T02:03:00.670Z,87.87
2022-09-11T02:05:48.428Z,88.48
2022-09-11T02:08:30.721Z,89.30
2022-09-11T02:11:18.247Z,89.29
2022-09-11T02:14:17.344Z,89.83
2022-09-11T02:16:53.808Z,89.65
2022-09-11T02:19:27.927Z,90.74
2022-09-11T02:21:58.010Z,90.68
2022-09-11T02:24:27.496Z,90.46
2022-09-11T02:27:05.233Z,90.92
2022-09-11T02:29:34.182Z,91.81
2022-09-11T02:32:03.785Z,91.56
2022-09-11T02:34:37.692Z,93.73
2022-09-11T02:37:29.682Z,98.12
2022-09-11T02:40:19.531Z,100.00
2022-09-11T02:43:09.297Z,98.34
2022-09-11T02:45:54.357Z,97.99
2022-09-11T02:48:53.972Z,100.00
2022-09-11T02:51:56.248Z,100.00
2022-09-11T02:54:33.822Z,100.00
2022-09-11T02:57:15.407Z,100.00
2022-09-11T02:59:52.932Z,100.00
2022-09-11T03:02:23.658Z,100.00
2022-09-11T03:04:51.817Z,100.00
2022-09-11T03:07:19.562Z,100.00
2022-09-11T03:09:47.625Z,100.00
2022-09-11T03:12:20.880Z,100.00
2022-09-11T03:14:52.588Z,100.00
2022-09-11T03:17:21.931Z,100.00
2022-09-11T03:19:49.944Z,100.00
2022-09-11T03:22:19.112Z,100.00
2022-09-11T03:24:48.195Z,100.00
2022-09-11T03:27:17.310Z,100.00
2022-09-11T03:29:46.568Z,100.00
2022-09-11T03:32:16.224Z,100.00
2022-09-11T03:34:43.832Z,100.00
2022-09-11T03:37:11.416Z,100.00
2022-09-11T03:39:39.829Z,100.00
2022-09-11T03:42:07.464Z,100.00
2022-09-11T03:44:35.538Z,100.00
2022-09-11T03:47:03.152Z,100.00
2022-09-11T03:49:30.936Z,100.00
2022-09-11T03:51:58.477Z,100.00
2022-09-11T03:54:26.085Z,100.00
2022-09-11T03:56:53.791Z,100.00
2022-09-11T03:59:21.454Z,100.00
2022-09-11T04:01:51.021Z,100.00
2022-09-11T04:04:19.355Z,100.00
2022-09-11T04:06:46.817Z,100.00
2022-09-11T04:09:14.538Z,100.00
2022-09-11T04:11:42.170Z,100.00
2022-09-11T04:14:22.658Z,100.00
2022-09-11T04:16:53.951Z,100.00
2022-09-11T04:19:23.831Z,100.00
2022-09-11T04:21:51.903Z,100.00
2022-09-11T04:24:19.844Z,100.00
2022-09-11T04:26:47.993Z,100.00
2022-09-11T04:29:22.587Z,100.00
2022-09-11T04:31:51.343Z,100.00
2022-09-11T04:34:20.239Z,100.00
2022-09-11T04:36:47.843Z,100.00
2022-09-11T04:39:20.687Z,100.00
2022-09-11T04:41:49.423Z,100.00
2022-09-11T04:44:17.463Z,100.00
2022-09-11T04:46:45.801Z,100.00
2022-09-11T04:49:14.976Z,100.00
2022-09-11T04:51:44.044Z,100.00
2022-09-11T04:54:18.033Z,100.00
2022-09-11T04:56:46.816Z,100.00
2022-09-11T04:59:18.223Z,100.00
2022-09-11T05:01:51.740Z,100.00
2022-09-11T05:04:25.337Z,100.00
2022-09-11T05:06:55.184Z,100.00
2022-09-11T05:09:22.769Z,100.00
2022-09-11T05:11:50.807Z,100.00
2022-09-11T05:14:18.582Z,100.00
2022-09-11T05:16:50.170Z,100.00
2022-09-11T05:19:19.636Z,100.00
2022-09-11T05:21:48.295Z,100.00
2022-09-11T05:24:16.652Z,100.00
2022-09-11T05:26:44.607Z,100.00
2022-09-11T05:29:15.826Z,100.00
2022-09-11T05:32:01.360Z,100.00
2022-09-11T05:34:29.901Z,100.00
2022-09-11T05:36:58.731Z,97.00
2022-09-11T05:39:29.863Z,97.41
2022-09-11T05:41:58.317Z,95.12
2022-09-11T05:44:31.113Z,91.29
2022-09-11T05:46:59.347Z,95.22
2022-09-11T05:49:26.851Z,96.03
2022-09-11T05:51:54.416Z,100.00
2022-09-11T05:54:22.861Z,100.00
2022-09-11T05:56:50.410Z,100.00
2022-09-11T05:59:24.348Z,100.00
2022-09-11T06:01:53.864Z,100.00
2022-09-11T06:04:34.284Z,100.00
2022-09-11T06:07:02.123Z,100.00
2022-09-11T06:09:30.649Z,100.00
2022-09-11T06:11:58.643Z,100.00
2022-09-11T06:14:27.695Z,100.00
2022-09-11T06:16:57.283Z,100.00
2022-09-11T06:19:26.965Z,98.73
2022-09-11T06:21:56.711Z,98.24
2022-09-11T06:24:29.241Z,96.02
2022-09-11T06:26:57.655Z,95.51
2022-09-11T06:29:27.806Z,94.45
2022-09-11T06:31:55.638Z,94.43
2022-09-11T06:34:27.737Z,92.84
2022-09-11T06:36:57.863Z,92.00
2022-09-11T06:39:26.949Z,90.69
2022-09-11T06:41:55.169Z,92.20
2022-09-11T06:44:28.647Z,93.71
2022-09-11T06:47:00.214Z,95.82
2022-09-11T06:49:27.946Z,96.91
2022-09-11T06:52:14.548Z,93.67
2022-09-11T06:54:50.615Z,91.36
2022-09-11T06:57:19.971Z,91.80
2022-09-11T06:59:47.504Z,92.84
2022-09-11T07:02:17.740Z,90.69
2022-09-11T07:04:47.553Z,89.17
2022-09-11T07:07:15.705Z,85.85
2022-09-11T07:09:43.547Z,85.18
2022-09-11T07:12:12.808Z,84.54
2022-09-11T07:14:41.422Z,82.44
2022-09-11T07:17:16.800Z,81.41
2022-09-11T07:19:47.986Z,81.14
2022-09-11T07:22:16.787Z,80.03
2022-09-11T07:24:47.318Z,78.74
2022-09-11T07:27:16.744Z,78.58
2022-09-11T07:29:44.786Z,78.43
2022-09-11T07:32:13.047Z,77.59
2022-09-11T07:34:41.219Z,77.75
2022-09-11T07:37:11.634Z,75.79
2022-09-11T07:39:40.687Z,74.91
2022-09-11T07:42:15.461Z,77.97
2022-09-11T07:44:43.803Z,80.35
2022-09-11T07:47:11.768Z,80.29
2022-09-11T07:49:48.248Z,79.35
2022-09-11T07:52:16.942Z,76.76
2022-09-11T07:54:51.323Z,77.66
2022-09-11T07:57:22.081Z,78.88
2022-09-11T07:59:51.631Z,78.44
2022-09-11T08:02:20.683Z,79.35
2022-09-11T08:04:49.259Z,81.22
2022-09-11T08:07:17.822Z,79.18
2022-09-11T08:09:45.632Z,80.69
2022-09-11T08:12:14.062Z,81.84
2022-09-11T08:14:42.138Z,81.97
2022-09-11T08:17:16.335Z,81.33
2022-09-11T08:19:44.301Z,77.45
2022-09-11T08:22:13.042Z,78.84
2022-09-11T08:24:44.604Z,79.08
2022-09-11T08:27:16.641Z,80.05
2022-09-11T08:29:46.028Z,80.98
2022-09-11T08:32:14.062Z,82.22
2022-09-11T08:34:42.311Z,81.57
2022-09-11T08:37:10.896Z,82.05
2022-09-11T08:39:38.975Z,81.26
2022-09-11T08:42:14.151Z,79.94
2022-09-11T08:44:53.625Z,77.50
2022-09-11T08:47:50.711Z,77.63
2022-09-11T08:50:23.603Z,75.72
2022-09-11T08:52:54.251Z,75.99
2022-09-11T08:55:41.400Z,75.55
2022-09-11T08:58:33.677Z,71.51
2022-09-11T09:01:36.047Z,67.28
2022-09-11T09:04:26.958Z,64.57
2022-09-11T09:07:32.202Z,60.07
2022-09-11T09:10:29.374Z,60.13
2022-09-11T09:13:06.900Z,58.71
2022-09-11T09:16:06.540Z,61.49
2022-09-11T09:18:41.894Z,58.26
2022-09-11T09:21:20.353Z,55.47
2022-09-11T09:23:59.094Z,56.25
2022-09-11T09:26:40.866Z,53.38
2022-09-11T09:29:17.953Z,56.13
2022-09-11T09:31:47.812Z,56.35
2022-09-11T09:34:20.927Z,53.53
2022-09-11T09:37:22.337Z,55.38
2022-09-11T09:39:52.062Z,52.41
2022-09-11T09:42:59.153Z,52.59
2022-09-11T09:45:38.799Z,51.07
2022-09-11T09:48:10.499Z,49.43
2022-09-11T09:50:41.393Z,48.85
2022-09-11T09:53:18.279Z,46.10
2022-09-11T09:55:47.577Z,44.34
2022-09-11T09:58:15.654Z,44.67
2022-09-11T10:00:43.318Z,44.82
2022-09-11T10:03:28.679Z,42.14
2022-09-11T10:05:56.811Z,40.70
2022-09-11T10:08:33.940Z,40.56
2022-09-11T10:11:06.271Z,38.31
2022-09-11T10:13:38.179Z,37.61
2022-09-11T10:16:23.845Z,38.02
2022-09-11T10:18:53.448Z,36.77
2022-09-11T10:21:23.211Z,34.33
2022-09-11T10:24:22.690Z,34.13
2022-09-11T10:26:53.279Z,32.09
2022-09-11T10:29:26.552Z,32.35
2022-09-11T10:31:56.942Z,32.32
2022-09-11T10:34:26.691Z,30.08
2022-09-11T10:37:02.158Z,31.25
2022-09-11T10:39:35.043Z,33.01
2022-09-11T10:42:11.907Z,32.16
2022-09-11T10:44:43.197Z,31.63
2022-09-11T10:47:22.932Z,29.45
2022-09-11T10:49:50.704Z,30.79
2022-09-11T10:52:22.161Z,28.49
2022-09-11T10:55:15.796Z,28.29
2022-09-11T10:57:59.729Z,28.44
2022-09-11T11:00:32.193Z,27.91
2022-09-11T11:03:06.855Z,28.58
2022-09-11T11:05:40.445Z,27.69
2022-09-11T11:08:27.887Z,28.52
2022-09-11T11:11:18.140Z,26.12
2022-09-11T11:14:00.538Z,25.36
2022-09-11T11:16:34.074Z,25.15
2022-09-11T11:19:07.971Z,25.35
2022-09-11T11:21:47.359Z,25.80
2022-09-11T11:24:41.841Z,24.27
2022-09-11T11:27:33.669Z,22.72
2022-09-11T11:30:20.868Z,24.38
2022-09-11T11:33:10.147Z,25.47
2022-09-11T11:36:15.562Z,26.20
2022-09-11T11:39:02.041Z,26.99
2022-09-11T11:41:35.316Z,27.21
2022-09-11T11:44:06.796Z,27.47
2022-09-11T11:46:46.101Z,27.29
2022-09-11T11:49:19.597Z,26.16
2022-09-11T11:52:03.795Z,26.50
2022-09-11T11:54:55.502Z,26.00
2022-09-11T11:57:31.546Z,25.23
2022-09-11T12:00:10.586Z,24.38
2022-09-11T12:02:46.870Z,24.73
2022-09-11T12:05:19.019Z,25.88
2022-09-11T12:07:48.415Z,25.28
2022-09-11T12:10:30.613Z,25.30
2022-09-11T12:13:01.888Z,25.35
2022-09-11T12:15:34.345Z,25.19
2022-09-11T12:18:06.955Z,26.33
2022-09-11T12:20:37.938Z,25.31
2022-09-11T12:23:24.850Z,26.35
2022-09-11T12:26:20.432Z,25.96
2022-09-11T12:28:50.164Z,25.74
2022-09-11T12:31:18.274Z,26.21
2022-09-11T12:33:51.075Z,25.85
2022-09-11T12:36:19.346Z,25.15
2022-09-11T12:38:49.726Z,24.82
2022-09-11T12:41:27.090Z,24.80
2022-09-11T12:43:55.211Z,24.85
2022-09-11T12:46:23.186Z,24.73
2022-09-11T12:49:21.075Z,24.10
2022-09-11T12:51:55.267Z,24.51
2022-09-11T12:54:25.723Z,24.26
2022-09-11T12:57:05.833Z,24.52
2022-09-11T12:59:39.682Z,23.86
2022-09-11T13:02:29.110Z,24.12
2022-09-11T13:04:58.126Z,23.79
2022-09-11T13:07:42.106Z,23.44
2022-09-11T13:10:28.853Z,22.76
2022-09-11T13:12:59.304Z,21.92
2022-09-11T13:15:37.844Z,21.12
2022-09-11T13:18:37.881Z,19.62
2022-09-11T13:21:11.304Z,19.29
2022-09-11T13:23:39.014Z,18.58
2022-09-11T13:26:08.006Z,19.58
2022-09-11T13:28:47.368Z,18.36
2022-09-11T13:31:21.439Z,18.31
2022-09-11T13:33:51.460Z,17.04
2022-09-11T13:36:24.220Z,17.41
2022-09-11T13:39:00.211Z,19.18
2022-09-11T13:41:32.223Z,18.95
2022-09-11T13:44:01.712Z,17.40
2022-09-11T13:46:31.566Z,17.94
2022-09-11T13:49:22.028Z,16.37
2022-09-11T13:51:49.673Z,16.76
2022-09-11T13:54:31.064Z,16.72
2022-09-11T13:57:03.161Z,15.82
2022-09-11T13:59:47.402Z,16.50
2022-09-11T14:02:34.670Z,16.52
2022-09-11T14:05:05.405Z,16.31
2022-09-11T14:07:41.037Z,15.36
2022-09-11T14:10:20.548Z,15.90
2022-09-11T14:12:55.615Z,14.96
2022-09-11T14:15:48.773Z,15.68
2022-09-11T14:18:39.950Z,15.77
2022-09-11T14:21:17.560Z,16.27
2022-09-11T14:23:53.234Z,15.68
2022-09-11T14:26:23.054Z,15.58
2022-09-11T14:29:01.720Z,15.60
2022-09-11T14:31:38.097Z,16.10
2022-09-11T14:34:27.988Z,16.42
2022-09-11T14:37:05.123Z,15.72
2022-09-11T14:39:36.110Z,14.95
2022-09-11T14:42:07.345Z,14.67
2022-09-11T14:44:39.491Z,15.18
2022-09-11T14:47:10.027Z,13.91
2022-09-11T14:49:37.973Z,13.33
2022-09-11T14:52:06.749Z,14.93
2022-09-11T14:54:34.205Z,15.99
2022-09-11T14:57:03.729Z,15.07
2022-09-11T14:59:31.379Z,14.68
2022-09-11T15:01:59.027Z,15.80
2022-09-11T15:04:27.440Z,15.25
2022-09-11T15:06:56.263Z,15.28
2022-09-11T15:09:24.717Z,16.04
2022-09-11T15:11:53.116Z,16.70
2022-09-11T15:14:38.618Z,16.33
2022-09-11T15:17:11.896Z,16.55
2022-09-11T15:19:40.946Z,16.91
2022-09-11T15:22:08.791Z,16.76
2022-09-11T15:24:39.162Z,16.77
2022-09-11T15:27:07.507Z,17.74
2022-09-11T15:29:34.995Z,18.25
2022-09-11T15:32:07.690Z,17.29
2022-09-11T15:34:35.257Z,18.39
2022-09-11T15:37:03.859Z,17.22
2022-09-11T15:39:33.839Z,17.16
2022-09-11T15:42:02.069Z,17.11
2022-09-11T15:44:30.224Z,17.38
2022-09-11T15:46:59.179Z,17.55
2022-09-11T15:49:29.438Z,17.52
2022-09-11T15:51:58.103Z,19.23
2022-09-11T15:54:26.588Z,19.81
2022-09-11T15:56:55.877Z,20.89
2022-09-11T15:59:23.804Z,21.74
2022-09-11T16:01:51.484Z,23.08
2022-09-11T16:04:21.967Z,26.01
2022-09-11T16:06:50.306Z,28.06
2022-09-11T16:09:21.468Z,30.02
2022-09-11T16:11:50.579Z,31.50
2022-09-11T16:14:21.286Z,33.46
2022-09-11T16:16:49.834Z,33.88
2022-09-11T16:19:20.472Z,34.25
2022-09-11T16:21:49.279Z,34.40
2022-09-11T16:24:18.416Z,34.95
2022-09-11T16:26:47.004Z,34.10
2022-09-11T16:29:15.484Z,35.39
2022-09-11T16:31:43.090Z,36.25
2022-09-11T16:34:11.164Z,36.57
2022-09-11T16:36:38.867Z,37.01
2022-09-11T16:39:11.634Z,36.34
2022-09-11T16:41:39.711Z,36.41
2022-09-11T16:44:10.499Z,37.12
2022-09-11T16:46:39.749Z,37.52
2022-09-11T16:49:07.989Z,37.85
2022-09-11T16:51:35.815Z,37.79
2022-09-11T16:54:04.350Z,37.72
2022-09-11T16:56:32.072Z,38.00
2022-09-11T16:58:59.744Z,38.38
2022-09-11T17:01:28.581Z,39.18
2022-09-11T17:03:57.948Z,38.98
2022-09-11T17:06:30.317Z,39.07
2022-09-11T17:09:00.438Z,39.38
2022-09-11T17:11:31.077Z,39.00
2022-09-11T17:14:01.698Z,39.42
2022-09-11T17:16:32.255Z,39.96
2022-09-11T17:19:09.647Z,39.78
2022-09-11T17:21:38.008Z,41.12
2022-09-11T17:24:07.522Z,41.39
2022-09-11T17:26:35.439Z,41.88
2022-09-11T17:29:05.750Z,42.98
2022-09-11T17:31:33.399Z,43.67
2022-09-11T17:34:01.272Z,43.04
2022-09-11T17:36:28.901Z,44.76
2022-09-11T17:38:59.564Z,45.35
2022-09-11T17:41:27.290Z,45.10
2022-09-11T17:43:55.186Z,45.96
2022-09-11T17:46:26.208Z,46.15
2022-09-11T17:48:54.160Z,45.38
2022-09-11T17:51:25.056Z,45.74
2022-09-11T17:53:56.554Z,45.79
2022-09-11T17:56:32.927Z,45.65
2022-09-11T17:59:00.996Z,45.98
2022-09-11T18:01:31.584Z,45.86
2022-09-11T18:03:59.880Z,45.78
2022-09-11T18:06:36.860Z,45.63
2022-09-11T18:09:16.191Z,46.92
2022-09-11T18:11:46.519Z,48.28
2022-09-11T18:14:15.384Z,48.79
2022-09-11T18:16:45.327Z,47.65
2022-09-11T18:19:16.789Z,46.90
2022-09-11T18:21:49.304Z,48.48
2022-09-11T18:24:20.149Z,47.61
2022-09-11T18:26:57.196Z,47.16
2022-09-11T18:29:27.407Z,51.54
2022-09-11T18:31:55.193Z,51.04
2022-09-11T18:34:25.691Z,51.85
2022-09-11T18:36:53.531Z,51.17
2022-09-11T18:39:22.018Z,53.03
2022-09-11T18:41:52.788Z,53.64
2022-09-11T18:44:22.915Z,54.42
2022-09-11T18:46:55.119Z,55.11
2022-09-11T18:49:24.480Z,56.39
2022-09-11T18:51:53.760Z,58.09
2022-09-11T18:54:21.551Z,57.76
2022-09-11T18:56:50.497Z,58.61
2022-09-11T18:59:20.184Z,59.78
2022-09-11T19:01:48.713Z,60.89
2022-09-11T19:04:16.961Z,62.31
2022-09-11T19:06:45.353Z,63.78
2022-09-11T19:09:14.906Z,63.52
2022-09-11T19:11:43.276Z,64.72
2022-09-11T19:14:12.343Z,66.29
2022-09-11T19:16:40.645Z,66.11
2022-09-11T19:19:08.426Z,64.92
2022-09-11T19:21:37.864Z,66.00
2022-09-11T19:24:07.561Z,68.30
2022-09-11T19:26:42.342Z,69.10
2022-09-11T19:29:11.143Z,68.67
2022-09-11T19:31:39.845Z,68.29
2022-09-11T19:34:11.888Z,69.64
2022-09-11T19:36:41.392Z,68.98
2022-09-11T19:39:10.522Z,68.08
2022-09-11T19:41:39.187Z,69.13
2022-09-11T19:44:11.542Z,70.68
2022-09-11T19:46:41.014Z,69.89
2022-09-11T19:49:11.292Z,70.88
2022-09-11T19:51:42.212Z,69.60
2022-09-11T19:54:12.491Z,70.34
2022-09-11T19:56:40.831Z,67.40
2022-09-11T19:59:09.437Z,68.14
2022-09-11T20:01:37.932Z,68.84
2022-09-11T20:04:06.147Z,69.33
2022-09-11T20:06:35.497Z,70.64
2022-09-11T20:11:52.570Z,70.57
2022-09-11T20:16:47.654Z,70.95
2022-09-11T20:19:17.363Z,71.47
2022-09-11T20:21:44.986Z,70.20
2022-09-11T20:24:12.935Z,70.41
2022-09-11T20:26:40.917Z,70.30
2022-09-11T20:29:13.998Z,70.27
2022-09-11T20:31:49.768Z,71.31
2022-09-11T20:34:19.255Z,71.34
2022-09-11T20:36:47.199Z,70.54
2022-09-11T20:39:16.360Z,69.87
2022-09-11T20:41:44.597Z,70.76
2022-09-11T20:44:12.911Z,71.06
2022-09-11T20:46:41.153Z,69.33
2022-09-11T20:49:08.786Z,69.23
2022-09-11T20:51:36.735Z,67.93
2022-09-11T20:54:04.860Z,65.50
2022-09-11T20:56:34.280Z,63.78
2022-09-11T20:59:02.261Z,64.45
2022-09-11T21:01:34.963Z,63.30
2022-09-11T21:04:05.564Z,60.53
2022-09-11T21:06:34.552Z,59.36
2022-09-11T21:09:06.674Z,59.55
2022-09-11T21:11:36.082Z,60.17
2022-09-11T21:14:04.886Z,60.96
2022-09-11T21:16:33.271Z,58.02
2022-09-11T21:19:02.614Z,58.55
2022-09-11T21:21:31.483Z,55.62
2022-09-11T21:24:02.357Z,54.85
2022-09-11T21:26:31.885Z,55.92
2022-09-11T21:29:01.949Z,55.54
2022-09-11T21:31:30.563Z,54.83
2022-09-11T21:33:58.978Z,54.93
2022-09-11T21:36:27.163Z,53.31
2022-09-11T21:38:54.770Z,53.54
2022-09-11T21:41:22.264Z,53.44
2022-09-11T21:43:49.828Z,53.96
2022-09-11T21:46:18.299Z,54.06
2022-09-11T21:48:45.851Z,54.46
2022-09-11T21:51:20.189Z,52.37
2022-09-11T21:53:49.897Z,52.29
2022-09-11T21:56:27.132Z,52.42
2022-09-11T21:58:55.197Z,51.97
2022-09-11T22:01:25.024Z,51.35
2022-09-11T22:03:54.740Z,50.57
2022-09-11T22:06:24.575Z,50.63
2022-09-11T22:08:53.515Z,49.49
2022-09-11T22:11:21.612Z,48.92
2022-09-11T22:13:49.617Z,49.32
2022-09-11T22:16:19.351Z,50.15
2022-09-11T22:18:50.768Z,48.79
2022-09-11T22:21:19.319Z,49.01
2022-09-11T22:23:47.396Z,48.17
2022-09-11T22:26:17.807Z,47.75
2022-09-11T22:28:46.049Z,48.10
2022-09-11T22:31:17.496Z,48.61
2022-09-11T22:33:45.463Z,48.46
2022-09-11T22:36:20.288Z,48.97
2022-09-11T22:38:49.195Z,48.53
2022-09-11T22:41:18.418Z,48.77
2022-09-11T22:43:47.671Z,49.69
2022-09-11T22:46:16.547Z,49.61
2022-09-11T22:48:44.591Z,50.41
2022-09-11T22:51:12.740Z,50.39
2022-09-11T22:53:40.431Z,50.05
2022-09-11T22:56:08.365Z,50.99
2022-09-11T22:58:38.395Z,50.65
2022-09-11T23:01:08.578Z,50.60
2022-09-11T23:03:36.329Z,51.46
2022-09-11T23:06:23.263Z,51.30
2022-09-11T23:08:51.258Z,50.79
2022-09-11T23:11:20.052Z,50.58
2022-09-11T23:13:50.460Z,50.93
2022-09-11T23:16:23.881Z,49.75
2022-09-11T23:18:56.556Z,50.10
2022-09-11T23:21:24.681Z,49.42
2022-09-11T23:23:54.788Z,48.74
2022-09-11T23:26:24.111Z,49.03
2022-09-11T23:28:52.843Z,49.42
2022-09-11T23:31:24.903Z,49.71
2022-09-11T23:33:54.674Z,50.22
2022-09-11T23:36:24.055Z,50.62
2022-09-11T23:38:52.214Z,50.88
2022-09-11T23:41:21.547Z,50.76
2022-09-11T23:43:50.310Z,51.32
2022-09-11T23:46:18.747Z,51.19
2022-09-11T23:48:47.019Z,50.96
2022-09-11T23:51:15.700Z,51.10
2022-09-11T23:53:45.276Z,50.72
2022-09-11T23:56:14.487Z,50.71
2022-09-11T23:58:42.762Z,51.23
